sensor_id;sensor_type;location;lat;lon;timestamp;P1;durP1;ratioP1;P2;durP2;ratioP2
3637;SDS011;1835;50.068;8.154;2022-07-21T00:00:36;29.60;;;17.70;;
3637;SDS011;1835;50.068;8.154;2022-07-21T00:03:04;31.27;;;17.67;;
3637;SDS011;1835;50.068;8.154;2022-07-21T00:05:32;30.83;;;18.90;;
3637;SDS011;1835;50.068;8.154;2022-07-21T00:08:03;27.73;;;18.10;;
3637;SDS011;1835;50.068;8.154;2022-07-21T00:10:32;34.40;;;18.70;;
3637;SDS011;1835;50.068;8.154;2022-07-21T00:13:00;30.20;;;17.50;;
3637;SDS011;1835;50.068;8.154;2022-07-21T00:15:29;29.37;;;16.50;;
3637;SDS011;1835;50.068;8.154;2022-07-21T00:17:59;25.93;;;16.40;;
3637;SDS011;1835;50.068;8.154;2022-07-21T00:20:28;26.47;;;15.80;;
3637;SDS011;1835;50.068;8.154;2022-07-21T00:22:56;29.67;;;17.63;;
3637;SDS011;1835;50.068;8.154;2022-07-21T00:25:27;28.67;;;17.23;;
3637;SDS011;1835;50.068;8.154;2022-07-21T00:27:59;26.03;;;16.70;;
3637;SDS011;1835;50.068;8.154;2022-07-21T00:30:28;29.33;;;18.77;;
3637;SDS011;1835;50.068;8.154;2022-07-21T00:32:57;28.77;;;17.17;;
3637;SDS011;1835;50.068;8.154;2022-07-21T00:35:26;24.50;;;16.27;;
3637;SDS011;1835;50.068;8.154;2022-07-21T00:37:54;32.80;;;18.83;;
3637;SDS011;1835;50.068;8.154;2022-07-21T00:40:23;28.90;;;17.80;;
3637;SDS011;1835;50.068;8.154;2022-07-21T00:42:53;29.30;;;17.60;;
3637;SDS011;1835;50.068;8.154;2022-07-21T00:45:22;29.30;;;18.27;;
3637;SDS011;1835;50.068;8.154;2022-07-21T00:47:50;31.20;;;17.70;;
3637;SDS011;1835;50.068;8.154;2022-07-21T00:50:19;29.30;;;17.80;;
3637;SDS011;1835;50.068;8.154;2022-07-21T00:52:48;30.07;;;17.90;;
3637;SDS011;1835;50.068;8.154;2022-07-21T00:55:17;27.13;;;17.20;;
3637;SDS011;1835;50.068;8.154;2022-07-21T00:57:49;36.30;;;18.27;;
3637;SDS011;1835;50.068;8.154;2022-07-21T01:00:20;31.30;;;19.03;;
3637;SDS011;1835;50.068;8.154;2022-07-21T01:02:52;24.97;;;17.10;;
3637;SDS011;1835;50.068;8.154;2022-07-21T01:05:21;27.87;;;16.03;;
3637;SDS011;1835;50.068;8.154;2022-07-21T01:07:49;29.90;;;17.70;;
3637;SDS011;1835;50.068;8.154;2022-07-21T01:10:21;25.77;;;17.40;;
3637;SDS011;1835;50.068;8.154;2022-07-21T01:12:51;28.90;;;14.80;;
3637;SDS011;1835;50.068;8.154;2022-07-21T01:15:21;23.53;;;15.10;;
3637;SDS011;1835;50.068;8.154;2022-07-21T01:17:50;24.00;;;14.33;;
3637;SDS011;1835;50.068;8.154;2022-07-21T01:20:19;18.07;;;10.87;;
3637;SDS011;1835;50.068;8.154;2022-07-21T01:22:50;17.27;;;10.17;;
3637;SDS011;1835;50.068;8.154;2022-07-21T01:25:22;19.10;;;10.67;;
3637;SDS011;1835;50.068;8.154;2022-07-21T01:27:51;10.30;;;7.00;;
3637;SDS011;1835;50.068;8.154;2022-07-21T01:30:19;9.60;;;6.73;;
3637;SDS011;1835;50.068;8.154;2022-07-21T01:32:48;9.93;;;6.90;;
3637;SDS011;1835;50.068;8.154;2022-07-21T01:35:16;9.07;;;6.40;;
3637;SDS011;1835;50.068;8.154;2022-07-21T01:37:45;8.90;;;6.00;;
3637;SDS011;1835;50.068;8.154;2022-07-21T01:40:16;6.60;;;5.40;;
3637;SDS011;1835;50.068;8.154;2022-07-21T01:43:02;9.47;;;5.90;;
3637;SDS011;1835;50.068;8.154;2022-07-21T01:45:37;11.20;;;6.40;;
3637;SDS011;1835;50.068;8.154;2022-07-21T01:48:07;7.27;;;5.80;;
3637;SDS011;1835;50.068;8.154;2022-07-21T01:50:36;9.63;;;5.77;;
3637;SDS011;1835;50.068;8.154;2022-07-21T01:53:05;7.50;;;5.27;;
3637;SDS011;1835;50.068;8.154;2022-07-21T01:55:34;6.90;;;5.70;;
3637;SDS011;1835;50.068;8.154;2022-07-21T01:58:03;7.97;;;5.20;;
3637;SDS011;1835;50.068;8.154;2022-07-21T02:00:31;9.27;;;4.97;;
3637;SDS011;1835;50.068;8.154;2022-07-21T02:02:59;5.77;;;4.90;;
3637;SDS011;1835;50.068;8.154;2022-07-21T02:05:28;9.80;;;4.57;;
3637;SDS011;1835;50.068;8.154;2022-07-21T02:07:56;5.57;;;4.57;;
3637;SDS011;1835;50.068;8.154;2022-07-21T02:10:24;7.03;;;4.80;;
3637;SDS011;1835;50.068;8.154;2022-07-21T02:12:54;4.87;;;4.43;;
3637;SDS011;1835;50.068;8.154;2022-07-21T02:15:22;5.47;;;4.40;;
3637;SDS011;1835;50.068;8.154;2022-07-21T02:17:51;9.83;;;4.53;;
3637;SDS011;1835;50.068;8.154;2022-07-21T02:20:19;3.67;;;3.30;;
3637;SDS011;1835;50.068;8.154;2022-07-21T02:22:47;4.43;;;3.40;;
3637;SDS011;1835;50.068;8.154;2022-07-21T02:25:15;7.20;;;4.47;;
3637;SDS011;1835;50.068;8.154;2022-07-21T02:27:44;4.20;;;3.80;;
3637;SDS011;1835;50.068;8.154;2022-07-21T02:30:15;14.00;;;4.43;;
3637;SDS011;1835;50.068;8.154;2022-07-21T02:32:43;6.10;;;3.90;;
3637;SDS011;1835;50.068;8.154;2022-07-21T02:35:11;7.70;;;3.27;;
3637;SDS011;1835;50.068;8.154;2022-07-21T02:37:39;5.83;;;3.63;;
3637;SDS011;1835;50.068;8.154;2022-07-21T02:40:07;6.63;;;3.73;;
3637;SDS011;1835;50.068;8.154;2022-07-21T02:42:36;3.73;;;3.43;;
3637;SDS011;1835;50.068;8.154;2022-07-21T02:45:05;6.57;;;3.27;;
3637;SDS011;1835;50.068;8.154;2022-07-21T02:47:48;3.60;;;3.30;;
3637;SDS011;1835;50.068;8.154;2022-07-21T02:50:21;5.23;;;4.00;;
3637;SDS011;1835;50.068;8.154;2022-07-21T02:52:53;4.53;;;4.13;;
3637;SDS011;1835;50.068;8.154;2022-07-21T02:55:24;4.63;;;3.63;;
3637;SDS011;1835;50.068;8.154;2022-07-21T02:58:02;4.03;;;3.73;;
3637;SDS011;1835;50.068;8.154;2022-07-21T03:00:36;4.70;;;4.30;;
3637;SDS011;1835;50.068;8.154;2022-07-21T03:03:08;5.97;;;4.60;;
3637;SDS011;1835;50.068;8.154;2022-07-21T03:05:37;6.63;;;4.10;;
3637;SDS011;1835;50.068;8.154;2022-07-21T03:08:06;11.00;;;4.43;;
3637;SDS011;1835;50.068;8.154;2022-07-21T03:10:37;8.50;;;4.20;;
3637;SDS011;1835;50.068;8.154;2022-07-21T03:13:06;11.80;;;4.20;;
3637;SDS011;1835;50.068;8.154;2022-07-21T03:15:34;7.03;;;4.00;;
3637;SDS011;1835;50.068;8.154;2022-07-21T03:18:03;7.63;;;4.20;;
3637;SDS011;1835;50.068;8.154;2022-07-21T03:20:34;7.13;;;5.23;;
3637;SDS011;1835;50.068;8.154;2022-07-21T03:23:06;6.20;;;4.13;;
3637;SDS011;1835;50.068;8.154;2022-07-21T03:25:34;4.80;;;4.20;;
3637;SDS011;1835;50.068;8.154;2022-07-21T03:28:02;5.70;;;4.50;;
3637;SDS011;1835;50.068;8.154;2022-07-21T03:30:31;6.23;;;4.80;;
3637;SDS011;1835;50.068;8.154;2022-07-21T03:32:59;6.10;;;4.63;;
3637;SDS011;1835;50.068;8.154;2022-07-21T03:35:27;6.67;;;4.63;;
3637;SDS011;1835;50.068;8.154;2022-07-21T03:37:58;10.23;;;4.80;;
3637;SDS011;1835;50.068;8.154;2022-07-21T03:40:28;5.80;;;4.50;;
3637;SDS011;1835;50.068;8.154;2022-07-21T03:42:59;7.80;;;5.60;;
3637;SDS011;1835;50.068;8.154;2022-07-21T03:45:30;7.80;;;5.00;;
3637;SDS011;1835;50.068;8.154;2022-07-21T03:48:00;6.27;;;5.33;;
3637;SDS011;1835;50.068;8.154;2022-07-21T03:50:30;11.10;;;5.17;;
3637;SDS011;1835;50.068;8.154;2022-07-21T03:53:00;12.67;;;5.63;;
3637;SDS011;1835;50.068;8.154;2022-07-21T03:55:28;6.80;;;4.83;;
3637;SDS011;1835;50.068;8.154;2022-07-21T03:57:58;8.00;;;5.90;;
3637;SDS011;1835;50.068;8.154;2022-07-21T04:00:29;8.90;;;5.60;;
3637;SDS011;1835;50.068;8.154;2022-07-21T04:03:00;9.97;;;6.03;;
3637;SDS011;1835;50.068;8.154;2022-07-21T04:05:28;6.70;;;5.43;;
3637;SDS011;1835;50.068;8.154;2022-07-21T04:07:57;9.50;;;6.23;;
3637;SDS011;1835;50.068;8.154;2022-07-21T04:10:28;6.87;;;5.03;;
3637;SDS011;1835;50.068;8.154;2022-07-21T04:13:01;6.80;;;5.23;;
3637;SDS011;1835;50.068;8.154;2022-07-21T04:15:32;7.03;;;5.33;;
3637;SDS011;1835;50.068;8.154;2022-07-21T04:18:01;11.93;;;5.93;;
3637;SDS011;1835;50.068;8.154;2022-07-21T04:20:30;7.77;;;5.80;;
3637;SDS011;1835;50.068;8.154;2022-07-21T04:23:00;11.60;;;5.93;;
3637;SDS011;1835;50.068;8.154;2022-07-21T04:25:29;8.27;;;6.20;;
3637;SDS011;1835;50.068;8.154;2022-07-21T04:27:58;7.90;;;6.60;;
3637;SDS011;1835;50.068;8.154;2022-07-21T04:30:26;7.80;;;5.00;;
3637;SDS011;1835;50.068;8.154;2022-07-21T04:32:54;10.80;;;6.50;;
3637;SDS011;1835;50.068;8.154;2022-07-21T04:35:26;9.10;;;5.57;;
3637;SDS011;1835;50.068;8.154;2022-07-21T04:37:54;12.53;;;5.57;;
3637;SDS011;1835;50.068;8.154;2022-07-21T04:40:24;7.10;;;5.70;;
3637;SDS011;1835;50.068;8.154;2022-07-21T04:42:53;15.03;;;6.57;;
3637;SDS011;1835;50.068;8.154;2022-07-21T04:45:25;6.57;;;5.77;;
3637;SDS011;1835;50.068;8.154;2022-07-21T04:47:55;9.97;;;5.40;;
3637;SDS011;1835;50.068;8.154;2022-07-21T04:50:23;9.13;;;6.03;;
3637;SDS011;1835;50.068;8.154;2022-07-21T04:52:54;8.37;;;6.80;;
3637;SDS011;1835;50.068;8.154;2022-07-21T04:55:24;8.53;;;5.97;;
3637;SDS011;1835;50.068;8.154;2022-07-21T04:57:52;8.17;;;5.90;;
3637;SDS011;1835;50.068;8.154;2022-07-21T05:00:21;11.50;;;7.17;;
3637;SDS011;1835;50.068;8.154;2022-07-21T05:02:52;5.83;;;5.30;;
3637;SDS011;1835;50.068;8.154;2022-07-21T05:05:21;7.80;;;5.70;;
3637;SDS011;1835;50.068;8.154;2022-07-21T05:07:50;8.73;;;7.27;;
3637;SDS011;1835;50.068;8.154;2022-07-21T05:10:18;12.70;;;6.37;;
3637;SDS011;1835;50.068;8.154;2022-07-21T05:12:49;12.10;;;5.50;;
3637;SDS011;1835;50.068;8.154;2022-07-21T05:15:17;13.10;;;5.90;;
3637;SDS011;1835;50.068;8.154;2022-07-21T05:17:45;8.10;;;5.93;;
3637;SDS011;1835;50.068;8.154;2022-07-21T05:20:13;6.73;;;5.17;;
3637;SDS011;1835;50.068;8.154;2022-07-21T05:22:41;6.70;;;5.63;;
3637;SDS011;1835;50.068;8.154;2022-07-21T05:25:09;7.07;;;5.83;;
3637;SDS011;1835;50.068;8.154;2022-07-21T05:27:37;6.60;;;5.47;;
3637;SDS011;1835;50.068;8.154;2022-07-21T05:30:08;8.60;;;5.77;;
3637;SDS011;1835;50.068;8.154;2022-07-21T05:32:37;7.17;;;5.87;;
3637;SDS011;1835;50.068;8.154;2022-07-21T05:35:13;9.77;;;6.17;;
3637;SDS011;1835;50.068;8.154;2022-07-21T05:37:41;10.90;;;5.57;;
3637;SDS011;1835;50.068;8.154;2022-07-21T05:40:11;8.90;;;6.00;;
3637;SDS011;1835;50.068;8.154;2022-07-21T05:42:40;12.13;;;7.63;;
3637;SDS011;1835;50.068;8.154;2022-07-21T05:45:10;16.60;;;6.93;;
3637;SDS011;1835;50.068;8.154;2022-07-21T05:47:39;10.37;;;6.70;;
3637;SDS011;1835;50.068;8.154;2022-07-21T05:50:08;11.47;;;6.50;;
3637;SDS011;1835;50.068;8.154;2022-07-21T05:52:37;7.10;;;6.20;;
3637;SDS011;1835;50.068;8.154;2022-07-21T05:55:05;9.53;;;5.97;;
3637;SDS011;1835;50.068;8.154;2022-07-21T05:57:36;9.53;;;6.13;;
3637;SDS011;1835;50.068;8.154;2022-07-21T06:00:13;9.53;;;6.13;;
3637;SDS011;1835;50.068;8.154;2022-07-21T06:02:42;9.10;;;6.83;;
3637;SDS011;1835;50.068;8.154;2022-07-21T06:05:11;10.97;;;6.40;;
3637;SDS011;1835;50.068;8.154;2022-07-21T06:07:40;8.60;;;6.20;;
3637;SDS011;1835;50.068;8.154;2022-07-21T06:10:08;6.77;;;5.40;;
3637;SDS011;1835;50.068;8.154;2022-07-21T06:12:41;9.97;;;6.43;;
3637;SDS011;1835;50.068;8.154;2022-07-21T06:15:10;12.27;;;6.27;;
3637;SDS011;1835;50.068;8.154;2022-07-21T06:17:40;8.90;;;6.20;;
3637;SDS011;1835;50.068;8.154;2022-07-21T06:20:10;13.93;;;6.40;;
3637;SDS011;1835;50.068;8.154;2022-07-21T06:22:39;15.20;;;5.67;;
3637;SDS011;1835;50.068;8.154;2022-07-21T06:25:07;13.63;;;6.03;;
3637;SDS011;1835;50.068;8.154;2022-07-21T06:27:36;6.10;;;5.23;;
3637;SDS011;1835;50.068;8.154;2022-07-21T06:30:05;8.83;;;6.80;;
3637;SDS011;1835;50.068;8.154;2022-07-21T06:32:35;7.87;;;5.90;;
3637;SDS011;1835;50.068;8.154;2022-07-21T06:35:03;7.40;;;5.27;;
3637;SDS011;1835;50.068;8.154;2022-07-21T06:37:33;7.73;;;5.13;;
3637;SDS011;1835;50.068;8.154;2022-07-21T06:40:01;7.00;;;5.40;;
3637;SDS011;1835;50.068;8.154;2022-07-21T06:42:31;10.10;;;5.07;;
3637;SDS011;1835;50.068;8.154;2022-07-21T06:44:59;10.53;;;5.20;;
3637;SDS011;1835;50.068;8.154;2022-07-21T06:47:27;10.60;;;5.33;;
3637;SDS011;1835;50.068;8.154;2022-07-21T06:49:57;7.50;;;5.43;;
3637;SDS011;1835;50.068;8.154;2022-07-21T06:52:31;7.00;;;5.10;;
3637;SDS011;1835;50.068;8.154;2022-07-21T06:55:02;4.90;;;4.50;;
3637;SDS011;1835;50.068;8.154;2022-07-21T06:57:32;7.13;;;5.00;;
3637;SDS011;1835;50.068;8.154;2022-07-21T07:00:01;6.77;;;5.17;;
3637;SDS011;1835;50.068;8.154;2022-07-21T07:02:30;9.17;;;5.93;;
3637;SDS011;1835;50.068;8.154;2022-07-21T07:04:59;13.07;;;6.33;;
3637;SDS011;1835;50.068;8.154;2022-07-21T07:07:33;8.47;;;5.50;;
3637;SDS011;1835;50.068;8.154;2022-07-21T07:10:01;11.33;;;6.77;;
3637;SDS011;1835;50.068;8.154;2022-07-21T07:12:29;19.60;;;5.77;;
3637;SDS011;1835;50.068;8.154;2022-07-21T07:15:17;8.57;;;6.20;;
3637;SDS011;1835;50.068;8.154;2022-07-21T07:17:46;8.70;;;5.53;;
3637;SDS011;1835;50.068;8.154;2022-07-21T07:20:15;8.23;;;5.70;;
3637;SDS011;1835;50.068;8.154;2022-07-21T07:22:43;5.97;;;5.27;;
3637;SDS011;1835;50.068;8.154;2022-07-21T07:25:12;6.70;;;4.80;;
3637;SDS011;1835;50.068;8.154;2022-07-21T07:27:43;7.27;;;4.57;;
3637;SDS011;1835;50.068;8.154;2022-07-21T07:30:12;10.43;;;4.90;;
3637;SDS011;1835;50.068;8.154;2022-07-21T07:32:41;6.80;;;5.33;;
3637;SDS011;1835;50.068;8.154;2022-07-21T07:35:10;6.10;;;5.10;;
3637;SDS011;1835;50.068;8.154;2022-07-21T07:37:41;7.97;;;5.07;;
3637;SDS011;1835;50.068;8.154;2022-07-21T07:40:13;5.33;;;4.83;;
3637;SDS011;1835;50.068;8.154;2022-07-21T07:42:43;7.83;;;5.30;;
3637;SDS011;1835;50.068;8.154;2022-07-21T07:45:12;4.43;;;4.03;;
3637;SDS011;1835;50.068;8.154;2022-07-21T07:47:41;6.33;;;4.83;;
3637;SDS011;1835;50.068;8.154;2022-07-21T07:50:11;5.93;;;5.03;;
3637;SDS011;1835;50.068;8.154;2022-07-21T07:52:42;4.47;;;4.13;;
3637;SDS011;1835;50.068;8.154;2022-07-21T07:55:12;7.30;;;5.00;;
3637;SDS011;1835;50.068;8.154;2022-07-21T07:57:41;6.03;;;5.10;;
3637;SDS011;1835;50.068;8.154;2022-07-21T08:00:10;6.33;;;5.20;;
3637;SDS011;1835;50.068;8.154;2022-07-21T08:03:01;8.47;;;4.83;;
3637;SDS011;1835;50.068;8.154;2022-07-21T08:05:30;11.17;;;4.97;;
3637;SDS011;1835;50.068;8.154;2022-07-21T08:07:59;8.10;;;4.20;;
3637;SDS011;1835;50.068;8.154;2022-07-21T08:10:27;8.97;;;5.60;;
3637;SDS011;1835;50.068;8.154;2022-07-21T08:13:12;8.90;;;5.57;;
3637;SDS011;1835;50.068;8.154;2022-07-21T08:15:41;4.97;;;4.20;;
3637;SDS011;1835;50.068;8.154;2022-07-21T08:18:11;6.20;;;4.90;;
3637;SDS011;1835;50.068;8.154;2022-07-21T08:20:40;10.80;;;4.70;;
3637;SDS011;1835;50.068;8.154;2022-07-21T08:23:10;11.20;;;4.60;;
3637;SDS011;1835;50.068;8.154;2022-07-21T08:25:40;5.60;;;4.70;;
3637;SDS011;1835;50.068;8.154;2022-07-21T08:28:09;6.60;;;4.80;;
3637;SDS011;1835;50.068;8.154;2022-07-21T08:30:38;4.20;;;3.80;;
3637;SDS011;1835;50.068;8.154;2022-07-21T08:33:06;6.70;;;4.27;;
3637;SDS011;1835;50.068;8.154;2022-07-21T08:35:34;3.97;;;3.63;;
3637;SDS011;1835;50.068;8.154;2022-07-21T08:38:04;12.40;;;3.70;;
3637;SDS011;1835;50.068;8.154;2022-07-21T08:40:37;6.93;;;4.07;;
3637;SDS011;1835;50.068;8.154;2022-07-21T08:43:07;11.93;;;4.67;;
3637;SDS011;1835;50.068;8.154;2022-07-21T08:45:38;5.90;;;3.93;;
3637;SDS011;1835;50.068;8.154;2022-07-21T08:48:07;4.43;;;4.03;;
3637;SDS011;1835;50.068;8.154;2022-07-21T08:50:36;5.00;;;4.47;;
3637;SDS011;1835;50.068;8.154;2022-07-21T08:53:07;4.60;;;4.20;;
3637;SDS011;1835;50.068;8.154;2022-07-21T08:55:37;4.60;;;4.30;;
3637;SDS011;1835;50.068;8.154;2022-07-21T08:58:07;6.63;;;4.00;;
3637;SDS011;1835;50.068;8.154;2022-07-21T09:00:36;6.03;;;3.83;;
3637;SDS011;1835;50.068;8.154;2022-07-21T09:03:08;4.80;;;3.97;;
3637;SDS011;1835;50.068;8.154;2022-07-21T09:05:39;3.10;;;2.83;;
3637;SDS011;1835;50.068;8.154;2022-07-21T09:08:07;3.20;;;3.00;;
3637;SDS011;1835;50.068;8.154;2022-07-21T09:10:37;3.90;;;3.60;;
3637;SDS011;1835;50.068;8.154;2022-07-21T09:17:05;3.73;;;2.77;;
3637;SDS011;1835;50.068;8.154;2022-07-21T09:19:36;11.57;;;3.33;;
3637;SDS011;1835;50.068;8.154;2022-07-21T09:22:14;3.30;;;3.00;;
3637;SDS011;1835;50.068;8.154;2022-07-21T09:24:49;2.73;;;2.53;;
3637;SDS011;1835;50.068;8.154;2022-07-21T09:27:21;3.70;;;3.30;;
3637;SDS011;1835;50.068;8.154;2022-07-21T09:29:55;3.70;;;2.90;;
3637;SDS011;1835;50.068;8.154;2022-07-21T09:32:26;3.60;;;3.30;;
3637;SDS011;1835;50.068;8.154;2022-07-21T09:34:58;3.97;;;3.67;;
3637;SDS011;1835;50.068;8.154;2022-07-21T09:37:33;4.37;;;3.30;;
3637;SDS011;1835;50.068;8.154;2022-07-21T09:40:03;3.90;;;3.20;;
3637;SDS011;1835;50.068;8.154;2022-07-21T09:42:36;4.37;;;3.00;;
3637;SDS011;1835;50.068;8.154;2022-07-21T09:45:07;5.63;;;3.80;;
3637;SDS011;1835;50.068;8.154;2022-07-21T09:47:39;3.43;;;3.13;;
3637;SDS011;1835;50.068;8.154;2022-07-21T09:50:10;4.33;;;3.23;;
3637;SDS011;1835;50.068;8.154;2022-07-21T09:52:52;4.53;;;2.80;;
3637;SDS011;1835;50.068;8.154;2022-07-21T09:55:23;3.33;;;3.03;;
3637;SDS011;1835;50.068;8.154;2022-07-21T09:57:53;5.90;;;3.80;;
3637;SDS011;1835;50.068;8.154;2022-07-21T10:00:24;3.37;;;2.70;;
3637;SDS011;1835;50.068;8.154;2022-07-21T10:02:52;117.97;;;8.63;;
3637;SDS011;1835;50.068;8.154;2022-07-21T10:05:22;3.00;;;2.83;;
3637;SDS011;1835;50.068;8.154;2022-07-21T10:07:58;7.43;;;3.10;;
3637;SDS011;1835;50.068;8.154;2022-07-21T10:10:33;3.67;;;2.67;;
3637;SDS011;1835;50.068;8.154;2022-07-21T10:13:23;2.50;;;2.30;;
3637;SDS011;1835;50.068;8.154;2022-07-21T10:15:51;5.40;;;3.10;;
3637;SDS011;1835;50.068;8.154;2022-07-21T10:18:21;15.33;;;2.87;;
3637;SDS011;1835;50.068;8.154;2022-07-21T10:20:59;7.53;;;2.70;;
3637;SDS011;1835;50.068;8.154;2022-07-21T10:23:35;3.43;;;2.00;;
3637;SDS011;1835;50.068;8.154;2022-07-21T10:26:08;3.40;;;2.27;;
3637;SDS011;1835;50.068;8.154;2022-07-21T10:28:39;1.97;;;1.87;;
3637;SDS011;1835;50.068;8.154;2022-07-21T10:31:15;2.40;;;2.20;;
3637;SDS011;1835;50.068;8.154;2022-07-21T10:33:56;2.03;;;1.57;;
3637;SDS011;1835;50.068;8.154;2022-07-21T10:36:42;1.93;;;1.83;;
3637;SDS011;1835;50.068;8.154;2022-07-21T10:39:19;1.50;;;1.43;;
3637;SDS011;1835;50.068;8.154;2022-07-21T10:41:52;3.07;;;1.73;;
3637;SDS011;1835;50.068;8.154;2022-07-21T10:44:39;1.63;;;1.53;;
3637;SDS011;1835;50.068;8.154;2022-07-21T10:47:17;1.70;;;1.60;;
3637;SDS011;1835;50.068;8.154;2022-07-21T10:49:51;2.00;;;1.80;;
3637;SDS011;1835;50.068;8.154;2022-07-21T10:55:29;13.57;;;2.70;;
3637;SDS011;1835;50.068;8.154;2022-07-21T10:58:09;1.90;;;1.80;;
3637;SDS011;1835;50.068;8.154;2022-07-21T11:00:45;3.63;;;1.93;;
3637;SDS011;1835;50.068;8.154;2022-07-21T11:03:17;5.40;;;2.00;;
3637;SDS011;1835;50.068;8.154;2022-07-21T11:08:57;2.03;;;1.93;;
3637;SDS011;1835;50.068;8.154;2022-07-21T11:11:36;2.20;;;2.00;;
3637;SDS011;1835;50.068;8.154;2022-07-21T11:14:10;4.20;;;2.20;;
3637;SDS011;1835;50.068;8.154;2022-07-21T11:19:41;3.10;;;2.33;;
3637;SDS011;1835;50.068;8.154;2022-07-21T11:22:16;2.27;;;1.90;;
3637;SDS011;1835;50.068;8.154;2022-07-21T11:24:47;3.20;;;2.40;;
3637;SDS011;1835;50.068;8.154;2022-07-21T11:27:24;2.60;;;2.50;;
3637;SDS011;1835;50.068;8.154;2022-07-21T11:29:54;2.27;;;2.17;;
3637;SDS011;1835;50.068;8.154;2022-07-21T11:32:25;3.00;;;2.70;;
3637;SDS011;1835;50.068;8.154;2022-07-21T11:34:55;2.30;;;2.20;;
3637;SDS011;1835;50.068;8.154;2022-07-21T11:37:28;2.93;;;2.67;;
3637;SDS011;1835;50.068;8.154;2022-07-21T11:40:03;3.90;;;2.50;;
3637;SDS011;1835;50.068;8.154;2022-07-21T11:42:34;4.40;;;3.40;;
3637;SDS011;1835;50.068;8.154;2022-07-21T11:45:03;2.77;;;2.57;;
3637;SDS011;1835;50.068;8.154;2022-07-21T11:47:35;2.63;;;2.47;;
3637;SDS011;1835;50.068;8.154;2022-07-21T11:50:04;11.67;;;3.27;;
3637;SDS011;1835;50.068;8.154;2022-07-21T11:52:36;10.17;;;2.73;;
3637;SDS011;1835;50.068;8.154;2022-07-21T11:55:07;8.20;;;3.20;;
3637;SDS011;1835;50.068;8.154;2022-07-21T11:57:40;4.77;;;3.20;;
3637;SDS011;1835;50.068;8.154;2022-07-21T12:00:10;4.60;;;2.70;;
3637;SDS011;1835;50.068;8.154;2022-07-21T12:02:41;4.37;;;2.97;;
3637;SDS011;1835;50.068;8.154;2022-07-21T12:05:10;5.27;;;2.93;;
3637;SDS011;1835;50.068;8.154;2022-07-21T12:07:42;3.80;;;3.50;;
3637;SDS011;1835;50.068;8.154;2022-07-21T12:10:20;3.80;;;3.13;;
3637;SDS011;1835;50.068;8.154;2022-07-21T12:12:51;4.97;;;3.97;;
3637;SDS011;1835;50.068;8.154;2022-07-21T12:15:26;8.80;;;2.87;;
3637;SDS011;1835;50.068;8.154;2022-07-21T12:18:00;26.73;;;13.60;;
3637;SDS011;1835;50.068;8.154;2022-07-21T12:20:31;7.30;;;4.00;;
3637;SDS011;1835;50.068;8.154;2022-07-21T12:23:02;12.00;;;5.87;;
3637;SDS011;1835;50.068;8.154;2022-07-21T12:25:45;6.27;;;3.40;;
3637;SDS011;1835;50.068;8.154;2022-07-21T12:28:21;3.20;;;3.10;;
3637;SDS011;1835;50.068;8.154;2022-07-21T12:31:09;4.47;;;3.37;;
3637;SDS011;1835;50.068;8.154;2022-07-21T12:33:42;4.33;;;3.40;;
3637;SDS011;1835;50.068;8.154;2022-07-21T12:36:30;5.20;;;3.40;;
3637;SDS011;1835;50.068;8.154;2022-07-21T12:39:12;14.03;;;4.37;;
3637;SDS011;1835;50.068;8.154;2022-07-21T12:42:04;7.00;;;3.27;;
3637;SDS011;1835;50.068;8.154;2022-07-21T12:44:34;7.43;;;3.57;;
3637;SDS011;1835;50.068;8.154;2022-07-21T12:47:13;16.23;;;4.07;;
3637;SDS011;1835;50.068;8.154;2022-07-21T12:49:59;29.80;;;4.73;;
3637;SDS011;1835;50.068;8.154;2022-07-21T12:52:42;4.70;;;2.70;;
3637;SDS011;1835;50.068;8.154;2022-07-21T12:55:10;5.77;;;3.13;;
3637;SDS011;1835;50.068;8.154;2022-07-21T12:57:38;6.80;;;3.27;;
3637;SDS011;1835;50.068;8.154;2022-07-21T13:00:07;8.30;;;3.70;;
3637;SDS011;1835;50.068;8.154;2022-07-21T13:02:44;11.13;;;4.20;;
3637;SDS011;1835;50.068;8.154;2022-07-21T13:05:15;3.93;;;3.63;;
3637;SDS011;1835;50.068;8.154;2022-07-21T13:07:44;4.60;;;4.20;;
3637;SDS011;1835;50.068;8.154;2022-07-21T13:10:12;3.47;;;3.20;;
3637;SDS011;1835;50.068;8.154;2022-07-21T13:12:40;4.10;;;3.23;;
3637;SDS011;1835;50.068;8.154;2022-07-21T13:15:09;2.70;;;2.60;;
3637;SDS011;1835;50.068;8.154;2022-07-21T13:17:38;4.63;;;3.37;;
3637;SDS011;1835;50.068;8.154;2022-07-21T13:20:08;3.47;;;3.27;;
3637;SDS011;1835;50.068;8.154;2022-07-21T13:22:38;3.40;;;3.20;;
3637;SDS011;1835;50.068;8.154;2022-07-21T13:25:08;4.90;;;3.37;;
3637;SDS011;1835;50.068;8.154;2022-07-21T13:27:39;3.00;;;2.80;;
3637;SDS011;1835;50.068;8.154;2022-07-21T13:30:14;8.20;;;3.53;;
3637;SDS011;1835;50.068;8.154;2022-07-21T13:32:48;4.43;;;3.20;;
3637;SDS011;1835;50.068;8.154;2022-07-21T13:35:16;4.57;;;3.27;;
3637;SDS011;1835;50.068;8.154;2022-07-21T13:37:53;4.63;;;4.20;;
3637;SDS011;1835;50.068;8.154;2022-07-21T13:40:22;4.93;;;3.20;;
3637;SDS011;1835;50.068;8.154;2022-07-21T13:43:11;4.50;;;3.90;;
3637;SDS011;1835;50.068;8.154;2022-07-21T13:46:01;4.33;;;3.93;;
3637;SDS011;1835;50.068;8.154;2022-07-21T13:48:29;4.90;;;3.77;;
3637;SDS011;1835;50.068;8.154;2022-07-21T13:50:57;10.50;;;4.17;;
3637;SDS011;1835;50.068;8.154;2022-07-21T13:53:27;4.13;;;3.63;;
3637;SDS011;1835;50.068;8.154;2022-07-21T13:55:55;3.87;;;3.53;;
3637;SDS011;1835;50.068;8.154;2022-07-21T13:58:23;4.37;;;4.00;;
3637;SDS011;1835;50.068;8.154;2022-07-21T14:00:51;5.30;;;3.40;;
3637;SDS011;1835;50.068;8.154;2022-07-21T14:03:20;10.90;;;3.77;;
3637;SDS011;1835;50.068;8.154;2022-07-21T14:05:49;9.10;;;4.10;;
3637;SDS011;1835;50.068;8.154;2022-07-21T14:08:17;5.30;;;4.70;;
3637;SDS011;1835;50.068;8.154;2022-07-21T14:10:46;10.27;;;3.77;;
3637;SDS011;1835;50.068;8.154;2022-07-21T14:13:14;5.37;;;3.90;;
3637;SDS011;1835;50.068;8.154;2022-07-21T14:15:43;8.33;;;5.60;;
3637;SDS011;1835;50.068;8.154;2022-07-21T14:18:11;8.33;;;3.50;;
3637;SDS011;1835;50.068;8.154;2022-07-21T14:20:40;3.03;;;2.87;;
3637;SDS011;1835;50.068;8.154;2022-07-21T14:23:08;6.17;;;4.63;;
3637;SDS011;1835;50.068;8.154;2022-07-21T14:25:37;4.37;;;3.70;;
3637;SDS011;1835;50.068;8.154;2022-07-21T14:28:07;9.23;;;3.20;;
3637;SDS011;1835;50.068;8.154;2022-07-21T14:30:35;3.57;;;3.27;;
3637;SDS011;1835;50.068;8.154;2022-07-21T14:33:03;5.20;;;4.13;;
3637;SDS011;1835;50.068;8.154;2022-07-21T14:35:32;6.20;;;3.57;;
3637;SDS011;1835;50.068;8.154;2022-07-21T14:38:00;3.43;;;3.23;;
3637;SDS011;1835;50.068;8.154;2022-07-21T14:40:29;5.33;;;3.40;;
3637;SDS011;1835;50.068;8.154;2022-07-21T14:42:57;3.17;;;2.97;;
3637;SDS011;1835;50.068;8.154;2022-07-21T14:45:26;6.60;;;3.33;;
3637;SDS011;1835;50.068;8.154;2022-07-21T14:47:55;5.90;;;4.07;;
3637;SDS011;1835;50.068;8.154;2022-07-21T14:50:26;4.90;;;3.60;;
3637;SDS011;1835;50.068;8.154;2022-07-21T14:52:54;4.17;;;3.87;;
3637;SDS011;1835;50.068;8.154;2022-07-21T14:55:23;6.83;;;3.87;;
3637;SDS011;1835;50.068;8.154;2022-07-21T14:57:52;6.67;;;3.63;;
3637;SDS011;1835;50.068;8.154;2022-07-21T15:00:21;4.40;;;3.57;;
3637;SDS011;1835;50.068;8.154;2022-07-21T15:02:52;4.13;;;3.83;;
3637;SDS011;1835;50.068;8.154;2022-07-21T15:05:21;3.43;;;3.13;;
3637;SDS011;1835;50.068;8.154;2022-07-21T15:07:50;3.97;;;3.57;;
3637;SDS011;1835;50.068;8.154;2022-07-21T15:10:18;5.17;;;3.77;;
3637;SDS011;1835;50.068;8.154;2022-07-21T15:12:47;7.17;;;4.70;;
3637;SDS011;1835;50.068;8.154;2022-07-21T15:15:16;4.70;;;3.80;;
3637;SDS011;1835;50.068;8.154;2022-07-21T15:17:44;4.83;;;3.90;;
3637;SDS011;1835;50.068;8.154;2022-07-21T15:20:14;4.20;;;3.83;;
3637;SDS011;1835;50.068;8.154;2022-07-21T15:22:42;3.73;;;3.50;;
3637;SDS011;1835;50.068;8.154;2022-07-21T15:25:10;4.20;;;3.30;;
3637;SDS011;1835;50.068;8.154;2022-07-21T15:27:39;5.00;;;3.33;;
3637;SDS011;1835;50.068;8.154;2022-07-21T15:30:09;3.27;;;3.07;;
3637;SDS011;1835;50.068;8.154;2022-07-21T15:32:40;4.50;;;3.83;;
3637;SDS011;1835;50.068;8.154;2022-07-21T15:35:09;3.53;;;3.23;;
3637;SDS011;1835;50.068;8.154;2022-07-21T15:37:39;5.27;;;3.63;;
3637;SDS011;1835;50.068;8.154;2022-07-21T15:40:08;4.47;;;4.07;;
3637;SDS011;1835;50.068;8.154;2022-07-21T15:42:39;4.07;;;3.73;;
3637;SDS011;1835;50.068;8.154;2022-07-21T15:45:08;3.53;;;3.33;;